모두
Temora Airport (Temora, New South Wales) TEM 기상
|
Temora, New South Wales (YTEM)
뇌우
바람이 붐 |
|
19 °C |
TEM 터미널 지역 예측
| Date | Time (AEST) | Flight Rules | Wind Dir. | Speed | Type | Height AGL (ft) | Visibility | Remarks | ||||||
|---|---|---|---|---|---|---|---|---|---|---|---|---|---|---|
| 03-5월 | 17:00 | IFR | Variable | 30 kt | Broken Scattered | 1,200 6,000 | 4000 meters. | Winds gusting to 40 knots. Thunderstorms and rain. | ||||||
| 03-5월 | 16:00 | IFR | Variable | 30 kt | Broken Scattered | 1,200 6,000 | 4000 meters. | Winds gusting to 40 knots. Thunderstorms and rain. | ||||||
| 03-5월 | 15:00 | IFR | Variable | 30 kt | Broken Scattered | 1,200 6,000 | 4000 meters. | Winds gusting to 40 knots. Thunderstorms and rain. | ||||||
최근 TEM METAR 이력
| Date | Time (AEST) | Flight Rules | Wind Dir. | Speed | Type | Height AGL (ft) | Visibility | Temp (°C) | Temp (°F) | Dew Point (°C) | Dew Point (°F) | Rel. Humid. | Pressure | Density Altitude | Remarks |
|---|---|---|---|---|---|---|---|---|---|---|---|---|---|---|---|
| 03-5월 | 15:05 | n/a | 340° | 26 kt | Missing | 19° | 66° | 14° | 57° | 73% | 1016 mb | 1,319 ft | Thunderstorms, Wind gusting to 36 KT | ||
| 03-5월 | 14:00 | n/a | 360° | 15 kt | Missing | 24° | 75° | 13° | 55° | 50% | 1016 mb | 1,919 ft | |||
| 03-5월 | 13:00 | n/a | 360° | 17 kt | Missing | 24° | 75° | 13° | 55° | 50% | 1017 mb | 1,889 ft | |||
| 03-5월 | 12:00 | n/a | 10° | 18 kt | Missing | 24° | 75° | 13° | 55° | 50% | 1018 mb | 1,859 ft | |||
| 03-5월 | 11:00 | n/a | 10° | 17 kt | Missing | 23° | 73° | 13° | 55° | 53% | 1019 mb | 1,710 ft | |||
| 03-5월 | 10:00 | n/a | 10° | 17 kt | Missing | 20° | 68° | 12° | 53° | 60% | 1019 mb | 1,350 ft | |||
| 03-5월 | 09:00 | n/a | 10° | 11 kt | Missing | 19° | 66° | 12° | 53° | 64% | 1020 mb | 1,200 ft | |||
| 03-5월 | 08:00 | n/a | 20° | 11 kt | Missing | 18° | 64° | 12° | 53° | 68% | 1019 mb | 1,110 ft | |||
| 03-5월 | 07:00 | n/a | 10° | 9 kt | Missing | 17° | 62° | 12° | 53° | 72% | 1019 mb | 990 ft | |||
| 03-5월 | 06:00 | n/a | 40° | 7 kt | Missing | 17° | 62° | 13° | 55° | 77% | 1018 mb | 1,019 ft | |||
| 03-5월 | 05:00 | n/a | 50° | 6 kt | Missing | 18° | 64° | 13° | 55° | 73% | 1018 mb | 1,139 ft | |||
| 03-5월 | 04:00 | n/a | 70° | 7 kt | Missing | 17° | 62° | 13° | 55° | 77% | 1018 mb | 1,019 ft | |||
| 03-5월 | 03:00 | n/a | 50° | 2 kt | Missing | 17° | 62° | 14° | 57° | 82% | 1018 mb | 1,019 ft | |||
| 03-5월 | 02:00 | n/a | 80° | 5 kt | Missing | 17° | 62° | 14° | 57° | 82% | 1019 mb | 990 ft | |||
| 03-5월 | 01:00 | n/a | 40° | 7 kt | Missing | 17° | 62° | 14° | 57° | 82% | 1019 mb | 990 ft | |||
| 03-5월 | 00:00 | n/a | 40° | 7 kt | Missing | 19° | 66° | 13° | 55° | 68% | 1019 mb | 1,230 ft | |||
| 02-5월 | 23:00 | n/a | 60° | 7 kt | Missing | 19° | 66° | 13° | 55° | 68% | 1020 mb | 1,200 ft | |||
| 02-5월 | 22:00 | n/a | Calm | Missing | 17° | 62° | 15° | 59° | 88% | 1020 mb | 960 ft | ||||
| 02-5월 | 21:00 | n/a | 340° | 9 kt | Missing | 19° | 66° | 14° | 57° | 73% | 1020 mb | 1,200 ft | |||
| 02-5월 | 20:00 | n/a | 50° | 6 kt | Missing | 21° | 69° | 12° | 53° | 56% | 1020 mb | 1,440 ft | |||
| 02-5월 | 19:00 | n/a | 30° | 3 kt | Missing | 19° | 66° | 12° | 53° | 64% | 1020 mb | 1,200 ft | |||
| 02-5월 | 18:00 | n/a | 30° | 6 kt | Missing | 21° | 69° | 11° | 51° | 53% | 1019 mb | 1,470 ft | |||
| 02-5월 | 17:00 | n/a | 10° | 11 kt | Missing | 23° | 73° | 11° | 51° | 47% | 1019 mb | 1,710 ft | |||
| 02-5월 | 16:00 | n/a | 30° | 13 kt | Missing | 24° | 75° | 9° | 48° | 38% | 1019 mb | 1,830 ft |
로그인
| 귀하의 브라우저는 지원되지 않습니다.. 브라우저를 업그레이드하세요 |
